createdAt,value
2019-03-18T00:00:09.784Z,82.80
2019-03-18T00:02:37.582Z,83.40
2019-03-18T00:05:10.580Z,83.10
2019-03-18T00:07:38.463Z,83.80
2019-03-18T00:10:06.540Z,84.10
2019-03-18T00:12:34.440Z,83.10
2019-03-18T00:15:03.948Z,83.00
2019-03-18T00:17:31.775Z,82.60
2019-03-18T00:19:59.569Z,82.90
2019-03-18T00:22:27.377Z,83.40
2019-03-18T00:25:00.385Z,81.80
2019-03-18T00:27:28.168Z,82.00
2019-03-18T00:29:55.960Z,81.50
2019-03-18T00:32:23.804Z,81.80
2019-03-18T00:34:51.684Z,81.90
2019-03-18T00:37:19.519Z,79.90
2019-03-18T00:39:47.295Z,81.90
2019-03-18T00:42:15.052Z,81.80
2019-03-18T00:45:33.042Z,81.80
2019-03-18T00:48:00.840Z,81.90
2019-03-18T00:50:28.634Z,81.90
2019-03-18T00:52:57.466Z,82.00
2019-03-18T00:55:28.343Z,80.80
2019-03-18T00:57:56.321Z,80.50
2019-03-18T01:00:25.244Z,79.70
2019-03-18T01:02:53.055Z,79.80
2019-03-18T01:05:45.497Z,79.80
2019-03-18T01:08:16.135Z,79.60
2019-03-18T01:10:44.050Z,80.10
2019-03-18T01:13:11.859Z,81.20
2019-03-18T01:15:39.713Z,81.20
2019-03-18T01:18:08.650Z,81.80
2019-03-18T01:20:36.453Z,81.60
2019-03-18T01:23:04.196Z,81.80
2019-03-18T01:25:31.979Z,81.90
2019-03-18T01:27:59.812Z,81.80
2019-03-18T01:30:27.775Z,81.80
2019-03-18T01:32:55.933Z,81.90
2019-03-18T01:35:33.983Z,82.30
2019-03-18T01:38:01.828Z,82.20
2019-03-18T01:40:29.637Z,81.90
2019-03-18T01:42:57.453Z,81.80
2019-03-18T01:45:25.238Z,81.60
2019-03-18T01:47:53.068Z,81.10
2019-03-18T01:50:20.961Z,80.60
2019-03-18T01:52:48.728Z,80.70
2019-03-18T01:55:16.537Z,80.30
2019-03-18T01:57:44.315Z,80.60
2019-03-18T02:00:12.203Z,80.60
2019-03-18T02:02:40.702Z,81.10
2019-03-18T02:05:09.545Z,81.40
2019-03-18T02:07:37.354Z,81.80
2019-03-18T02:10:06.472Z,81.80
2019-03-18T02:12:34.270Z,81.80
2019-03-18T02:15:02.088Z,82.50
2019-03-18T02:17:29.865Z,82.10
2019-03-18T02:19:57.725Z,82.90
2019-03-18T02:22:25.528Z,82.80
2019-03-18T02:24:55.462Z,82.30
2019-03-18T02:27:23.246Z,82.60
2019-03-18T02:29:51.029Z,83.00
2019-03-18T02:32:18.765Z,82.00
2019-03-18T02:34:46.603Z,81.70
2019-03-18T02:37:14.430Z,81.70
2019-03-18T02:39:42.225Z,83.20
2019-03-18T02:42:10.034Z,81.70
2019-03-18T02:44:43.174Z,83.70
2019-03-18T02:47:10.957Z,84.30
2019-03-18T02:49:38.759Z,82.60
2019-03-18T02:52:06.580Z,83.60
2019-03-18T02:54:34.356Z,82.80
2019-03-18T02:57:02.102Z,81.70
2019-03-18T02:59:29.923Z,81.70
2019-03-18T03:01:57.714Z,81.70
2019-03-18T03:04:30.701Z,81.50
2019-03-18T03:06:58.469Z,81.70
2019-03-18T03:09:26.304Z,81.60
2019-03-18T03:11:54.088Z,81.70
2019-03-18T03:14:21.934Z,81.70
2019-03-18T03:16:49.742Z,81.50
2019-03-18T03:19:17.533Z,81.70
2019-03-18T03:21:45.276Z,81.60
2019-03-18T03:24:13.065Z,81.60
2019-03-18T03:26:40.878Z,82.50
2019-03-18T03:29:08.670Z,82.40
2019-03-18T03:31:36.497Z,82.60
2019-03-18T03:34:04.292Z,81.90
2019-03-18T03:36:32.143Z,82.30
2019-03-18T03:38:59.911Z,81.90
2019-03-18T03:41:27.794Z,82.00
2019-03-18T03:43:55.911Z,81.50
2019-03-18T03:46:23.845Z,82.00
2019-03-18T03:48:51.594Z,82.00
2019-03-18T03:51:19.373Z,82.10
2019-03-18T03:53:47.158Z,82.20
2019-03-18T03:56:15.001Z,81.80
2019-03-18T03:58:42.765Z,82.80
2019-03-18T04:01:23.517Z,82.30
2019-03-18T04:03:51.573Z,82.80
2019-03-18T04:06:19.409Z,82.80
2019-03-18T04:08:47.192Z,81.60
2019-03-18T04:11:15.022Z,82.00
2019-03-18T04:13:53.001Z,82.30
2019-03-18T04:16:20.813Z,82.10
2019-03-18T04:18:48.598Z,81.70
2019-03-18T04:21:16.337Z,81.70
2019-03-18T04:23:44.336Z,82.30
2019-03-18T04:26:12.140Z,81.70
2019-03-18T04:28:40.243Z,81.70
2019-03-18T04:31:08.005Z,81.50
2019-03-18T04:33:39.017Z,80.80
2019-03-18T04:36:05.879Z,81.70
2019-03-18T04:38:33.671Z,81.00
2019-03-18T04:41:01.429Z,79.20
2019-03-18T04:43:29.488Z,79.20
2019-03-18T04:45:57.324Z,79.10
2019-03-18T04:48:25.118Z,78.90
2019-03-18T04:50:52.878Z,78.80
2019-03-18T04:53:20.682Z,78.40
2019-03-18T04:55:48.468Z,78.60
2019-03-18T04:58:16.280Z,78.10
2019-03-18T05:00:44.072Z,77.50
2019-03-18T05:03:16.902Z,77.60
2019-03-18T05:05:44.716Z,76.90
2019-03-18T05:08:12.469Z,77.00
2019-03-18T05:10:40.277Z,76.60
2019-03-18T05:13:08.121Z,77.90
2019-03-18T05:15:35.922Z,77.10
2019-03-18T05:18:03.677Z,76.50
2019-03-18T05:20:31.481Z,75.90
2019-03-18T05:22:59.235Z,76.80
2019-03-18T05:25:27.010Z,77.00
2019-03-18T05:27:54.800Z,76.80
2019-03-18T05:30:22.593Z,77.20
2019-03-18T05:32:50.407Z,76.60
2019-03-18T05:35:18.412Z,75.60
2019-03-18T05:37:46.234Z,76.20
2019-03-18T05:40:14.016Z,76.80
2019-03-18T05:42:41.842Z,75.20
2019-03-18T05:45:09.572Z,77.00
2019-03-18T05:47:39.560Z,75.90
2019-03-18T05:50:07.541Z,76.40
2019-03-18T05:52:35.320Z,76.20
2019-03-18T05:55:08.236Z,75.90
2019-03-18T05:57:36.028Z,75.40
2019-03-18T06:00:04.848Z,75.60
2019-03-18T06:02:32.874Z,75.20
2019-03-18T06:05:00.657Z,75.40
2019-03-18T06:07:28.501Z,75.00
2019-03-18T06:09:56.302Z,75.60
2019-03-18T06:12:24.059Z,74.90
2019-03-18T06:15:07.637Z,75.50
2019-03-18T06:20:13.945Z,75.60
2019-03-18T06:22:41.734Z,75.60
2019-03-18T06:25:09.555Z,74.60
2019-03-18T06:30:33.437Z,74.90
2019-03-18T06:33:01.257Z,74.60
2019-03-18T06:35:29.251Z,75.30
2019-03-18T06:37:57.098Z,75.00
2019-03-18T06:40:24.914Z,75.40
2019-03-18T06:42:52.716Z,74.20
2019-03-18T06:45:20.676Z,74.40
2019-03-18T06:47:48.464Z,73.70
2019-03-18T06:50:16.300Z,74.20
2019-03-18T06:52:44.043Z,73.40
2019-03-18T06:55:11.869Z,72.50
2019-03-18T06:57:39.666Z,72.20
2019-03-18T07:00:09.183Z,72.80
2019-03-18T07:02:37.017Z,71.90
2019-03-18T07:05:05.677Z,71.50
2019-03-18T07:07:33.494Z,71.70
2019-03-18T07:10:01.400Z,71.90
2019-03-18T07:12:29.270Z,72.00
2019-03-18T07:14:57.203Z,71.20
2019-03-18T07:17:25.030Z,71.10
2019-03-18T07:19:52.842Z,70.40
2019-03-18T07:22:22.786Z,68.80
2019-03-18T07:24:50.696Z,69.40
2019-03-18T07:27:18.478Z,68.50
2019-03-18T07:29:46.389Z,67.90
2019-03-18T07:32:15.318Z,67.80
2019-03-18T07:34:43.729Z,68.10
2019-03-18T07:37:11.552Z,66.90
2019-03-18T07:39:39.668Z,66.60
2019-03-18T07:42:07.425Z,63.60
2019-03-18T07:44:35.219Z,61.90
2019-03-18T07:47:03.045Z,60.00
2019-03-18T07:49:30.864Z,60.00
2019-03-18T07:51:58.654Z,62.00
2019-03-18T07:54:32.669Z,63.10
2019-03-18T07:56:56.454Z,62.50
2019-03-18T07:59:24.313Z,63.20
2019-03-18T08:01:52.109Z,64.90
2019-03-18T08:04:19.955Z,64.40
2019-03-18T08:06:47.776Z,64.50
2019-03-18T08:09:15.551Z,64.50
2019-03-18T08:11:43.402Z,65.20
2019-03-18T08:14:16.717Z,64.70
2019-03-18T08:16:44.582Z,64.70
2019-03-18T08:19:12.391Z,63.80
2019-03-18T08:21:40.130Z,63.70
2019-03-18T08:24:07.950Z,64.60
2019-03-18T08:26:35.755Z,64.70
2019-03-18T08:29:03.877Z,63.60
2019-03-18T08:31:31.681Z,65.00
2019-03-18T08:34:04.583Z,65.10
2019-03-18T08:36:32.364Z,64.80
2019-03-18T08:39:00.122Z,64.60
2019-03-18T08:41:27.922Z,65.80
2019-03-18T08:43:55.711Z,65.80
2019-03-18T08:46:23.524Z,66.40
2019-03-18T08:48:55.771Z,67.90
2019-03-18T08:51:21.001Z,68.80
2019-03-18T08:53:48.948Z,67.70
2019-03-18T08:56:16.715Z,68.50
2019-03-18T08:58:44.466Z,68.70
2019-03-18T09:01:12.277Z,69.90
2019-03-18T09:03:40.062Z,68.80
2019-03-18T09:06:07.872Z,70.30
2019-03-18T09:08:35.633Z,71.40
2019-03-18T09:11:03.402Z,71.20
2019-03-18T09:13:36.393Z,72.40
2019-03-18T09:16:23.656Z,74.00
2019-03-18T09:18:51.400Z,76.00
2019-03-18T09:21:19.175Z,75.30
2019-03-18T09:23:46.956Z,74.70
2019-03-18T09:26:14.727Z,73.90
2019-03-18T09:28:42.527Z,72.00
2019-03-18T09:31:10.378Z,72.30
2019-03-18T09:33:43.395Z,70.90
2019-03-18T09:36:11.174Z,68.90
2019-03-18T09:38:38.921Z,68.40
2019-03-18T09:41:06.749Z,68.50
2019-03-18T09:43:34.584Z,68.50
2019-03-18T09:46:02.342Z,68.80
2019-03-18T09:48:30.115Z,70.40
2019-03-18T09:50:57.916Z,68.30
2019-03-18T09:55:52.683Z,69.60
2019-03-18T09:58:20.922Z,69.80
2019-03-18T10:00:50.745Z,68.50
2019-03-18T10:03:18.446Z,69.60
2019-03-18T10:05:46.233Z,68.80
2019-03-18T10:08:15.299Z,69.00
2019-03-18T10:10:43.217Z,70.20
2019-03-18T10:13:11.024Z,71.30
2019-03-18T10:15:39.350Z,71.90
2019-03-18T10:18:07.188Z,69.80
2019-03-18T10:20:35.064Z,69.90
2019-03-18T10:23:03.188Z,70.80
2019-03-18T10:25:31.355Z,69.30
2019-03-18T10:27:59.077Z,70.10
2019-03-18T10:30:26.872Z,68.30
2019-03-18T10:32:54.655Z,68.50
2019-03-18T10:35:22.482Z,67.40
2019-03-18T10:37:50.253Z,66.90
2019-03-18T10:40:18.109Z,65.70
2019-03-18T10:42:45.863Z,66.00
2019-03-18T10:45:18.734Z,62.70
2019-03-18T10:47:46.568Z,62.90
2019-03-18T10:50:14.353Z,62.00
2019-03-18T10:52:43.507Z,62.40
2019-03-18T10:55:11.533Z,62.30
2019-03-18T10:57:39.432Z,60.30
2019-03-18T11:00:09.347Z,59.10
2019-03-18T11:02:37.140Z,59.00
2019-03-18T11:05:08.072Z,59.20
2019-03-18T11:07:35.017Z,59.60
2019-03-18T11:10:05.548Z,59.10
2019-03-18T11:12:33.320Z,58.90
2019-03-18T11:15:01.327Z,59.70
2019-03-18T11:17:29.130Z,61.80
2019-03-18T11:19:58.812Z,61.60
2019-03-18T11:22:26.582Z,63.80
2019-03-18T11:24:54.393Z,64.40
2019-03-18T11:27:22.203Z,66.30
2019-03-18T11:29:49.949Z,65.50
2019-03-18T11:32:17.755Z,54.00
2019-03-18T11:35:04.957Z,47.80
2019-03-18T11:37:43.422Z,46.00
2019-03-18T11:40:11.480Z,42.60
2019-03-18T11:42:39.220Z,39.70
2019-03-18T11:45:08.818Z,35.70
2019-03-18T11:47:36.846Z,37.00
2019-03-18T11:50:11.131Z,35.90
2019-03-18T11:52:34.869Z,35.10
2019-03-18T11:55:03.339Z,32.30
2019-03-18T11:57:31.128Z,32.30
2019-03-18T12:00:00.055Z,34.40
2019-03-18T12:02:28.229Z,36.60
2019-03-18T12:04:57.612Z,35.10
2019-03-18T12:07:25.660Z,36.50
2019-03-18T12:09:53.502Z,36.10
2019-03-18T12:12:21.325Z,35.60
2019-03-18T12:14:54.441Z,35.80
2019-03-18T12:17:22.203Z,37.80
2019-03-18T12:19:50.008Z,38.20
2019-03-18T12:22:17.863Z,39.60
2019-03-18T12:24:45.683Z,38.20
2019-03-18T12:27:13.448Z,37.80
2019-03-18T12:30:00.700Z,40.50
2019-03-18T12:32:28.494Z,41.10
2019-03-18T12:34:56.359Z,41.00
2019-03-18T12:37:24.267Z,41.00
2019-03-18T12:39:52.088Z,42.80
2019-03-18T12:42:20.101Z,43.10
2019-03-18T12:44:47.859Z,44.60
2019-03-18T12:47:15.644Z,50.70
2019-03-18T12:49:43.518Z,57.40
2019-03-18T12:52:11.509Z,55.50
2019-03-18T12:54:39.698Z,53.80
2019-03-18T12:57:09.091Z,49.80
2019-03-18T12:59:36.950Z,44.90
2019-03-18T13:02:04.729Z,42.60
2019-03-18T13:04:34.724Z,39.10
2019-03-18T13:07:02.490Z,39.00
2019-03-18T13:09:30.308Z,33.50
2019-03-18T13:11:58.103Z,32.40
2019-03-18T13:14:27.225Z,31.00
2019-03-18T13:16:56.044Z,33.60
2019-03-18T13:19:23.868Z,29.20
2019-03-18T13:21:51.701Z,30.40
2019-03-18T13:24:20.571Z,28.70
2019-03-18T13:26:48.386Z,30.00
2019-03-18T13:29:16.257Z,32.00
2019-03-18T13:31:44.126Z,34.70
2019-03-18T13:34:12.145Z,39.70
2019-03-18T13:36:42.318Z,42.50
2019-03-18T13:39:10.145Z,49.80
2019-03-18T13:41:38.402Z,58.80
2019-03-18T13:44:06.249Z,61.60
2019-03-18T13:46:36.735Z,66.70
2019-03-18T13:49:04.563Z,68.20
2019-03-18T13:51:32.352Z,64.10
2019-03-18T13:54:00.575Z,63.10
2019-03-18T13:56:28.414Z,59.90
2019-03-18T13:58:56.196Z,54.10
2019-03-18T14:01:24.056Z,51.10
2019-03-18T14:03:51.836Z,45.70
2019-03-18T14:06:19.682Z,42.90
2019-03-18T14:08:47.421Z,41.50
2019-03-18T14:11:15.167Z,41.60
2019-03-18T14:13:43.361Z,41.20
2019-03-18T14:16:11.218Z,40.10
2019-03-18T14:18:39.006Z,37.80
2019-03-18T14:21:08.110Z,38.00
2019-03-18T14:23:35.904Z,37.10
2019-03-18T14:26:03.679Z,37.40
2019-03-18T14:28:31.473Z,40.10
2019-03-18T14:30:59.268Z,39.30
2019-03-18T14:33:33.077Z,41.30
2019-03-18T14:36:00.878Z,39.90
2019-03-18T14:38:28.678Z,39.50
2019-03-18T14:40:56.557Z,40.20
2019-03-18T14:43:24.378Z,37.70
2019-03-18T14:45:52.465Z,38.30
2019-03-18T14:48:20.282Z,38.10
2019-03-18T14:50:48.030Z,40.20
2019-03-18T14:53:15.866Z,40.70
2019-03-18T14:55:43.653Z,42.10
2019-03-18T14:58:11.471Z,45.10
2019-03-18T15:00:39.246Z,46.10
2019-03-18T15:03:07.059Z,47.80
2019-03-18T15:05:36.972Z,47.80
2019-03-18T15:08:04.620Z,48.10
2019-03-18T15:10:32.470Z,45.70
2019-03-18T15:13:00.261Z,44.40
2019-03-18T15:15:28.387Z,40.90
2019-03-18T15:17:56.181Z,41.30
2019-03-18T15:20:24.048Z,39.70
2019-03-18T15:22:51.826Z,40.70
2019-03-18T15:25:20.343Z,39.80
2019-03-18T15:27:50.659Z,40.40
2019-03-18T15:30:23.979Z,39.40
2019-03-18T15:32:55.967Z,39.00
2019-03-18T15:35:29.472Z,38.40
2019-03-18T15:37:57.279Z,40.30
2019-03-18T15:40:25.135Z,37.70
2019-03-18T15:42:53.694Z,38.10
2019-03-18T15:45:30.506Z,36.80
2019-03-18T15:47:58.320Z,37.40
2019-03-18T15:50:26.250Z,36.50
2019-03-18T15:52:54.022Z,37.10
2019-03-18T15:55:24.378Z,37.40
2019-03-18T15:57:55.902Z,37.30
2019-03-18T16:00:25.494Z,38.90
2019-03-18T16:02:55.404Z,37.80
2019-03-18T16:05:23.286Z,38.50
2019-03-18T16:07:51.077Z,37.70
2019-03-18T16:10:19.187Z,37.40
2019-03-18T16:12:47.327Z,38.00
2019-03-18T16:15:15.350Z,39.90
2019-03-18T16:17:43.227Z,38.20
2019-03-18T16:20:12.312Z,39.60
2019-03-18T16:22:43.193Z,39.40
2019-03-18T16:27:52.752Z,39.90
2019-03-18T16:30:20.683Z,40.30
2019-03-18T16:32:48.341Z,41.70
2019-03-18T16:35:16.521Z,42.00
2019-03-18T16:37:44.450Z,42.20
2019-03-18T16:40:12.591Z,43.80
2019-03-18T16:42:40.561Z,44.10
2019-03-18T16:45:10.042Z,44.30
2019-03-18T16:47:37.915Z,45.50
2019-03-18T16:50:07.860Z,46.30
2019-03-18T16:52:36.326Z,48.20
2019-03-18T16:55:04.982Z,49.00
2019-03-18T16:57:33.109Z,50.20
2019-03-18T17:00:01.637Z,51.50
2019-03-18T17:02:29.940Z,53.50
2019-03-18T17:04:58.496Z,53.50
2019-03-18T17:07:27.354Z,54.80
2019-03-18T17:09:56.062Z,54.80
2019-03-18T17:12:24.923Z,55.60
2019-03-18T17:14:53.605Z,56.40
2019-03-18T17:17:21.944Z,56.30
2019-03-18T17:19:53.450Z,55.60
2019-03-18T17:22:27.114Z,55.60
2019-03-18T17:24:57.329Z,56.20
2019-03-18T17:27:26.101Z,55.10
2019-03-18T17:29:55.029Z,55.80
2019-03-18T17:32:24.857Z,57.10
2019-03-18T17:34:53.541Z,57.90
2019-03-18T17:37:22.467Z,58.00
2019-03-18T17:39:51.360Z,58.00
2019-03-18T17:42:20.230Z,59.60
2019-03-18T17:44:48.916Z,60.20
2019-03-18T17:47:17.455Z,61.60
2019-03-18T17:49:46.403Z,60.50
2019-03-18T17:52:15.430Z,62.00
2019-03-18T17:54:45.222Z,61.80
2019-03-18T17:57:16.882Z,62.60
2019-03-18T17:59:45.547Z,62.50
2019-03-18T18:02:17.157Z,62.40
2019-03-18T18:05:03.447Z,62.40
2019-03-18T18:07:36.598Z,62.30
2019-03-18T18:10:09.584Z,63.40
2019-03-18T18:12:38.023Z,63.40
2019-03-18T18:15:06.600Z,64.40
2019-03-18T18:17:35.222Z,63.50
2019-03-18T18:20:05.608Z,65.00
2019-03-18T18:22:33.968Z,64.20
2019-03-18T18:25:02.195Z,65.10
2019-03-18T18:27:40.505Z,64.80
2019-03-18T18:30:09.036Z,64.30
2019-03-18T18:32:40.086Z,65.60
2019-03-18T18:35:29.741Z,65.40
2019-03-18T18:37:57.801Z,66.80
2019-03-18T18:40:26.577Z,67.20
2019-03-18T18:43:03.229Z,67.00
2019-03-18T18:45:37.596Z,67.00
2019-03-18T18:48:06.242Z,66.90
2019-03-18T18:50:41.246Z,66.90
2019-03-18T18:53:09.061Z,68.30
2019-03-18T18:55:39.920Z,66.90
2019-03-18T18:58:09.975Z,68.00
2019-03-18T19:00:37.767Z,68.00
2019-03-18T19:03:15.065Z,69.20
2019-03-18T19:05:47.382Z,67.70
2019-03-18T19:08:16.457Z,68.10
2019-03-18T19:10:49.383Z,68.00
2019-03-18T19:13:17.984Z,68.20
2019-03-18T19:15:48.072Z,70.00
2019-03-18T19:18:17.160Z,69.90
2019-03-18T19:20:45.118Z,70.00
2019-03-18T19:23:12.993Z,71.80
2019-03-18T19:25:46.931Z,70.60
2019-03-18T19:28:16.028Z,70.90
2019-03-18T19:30:43.910Z,70.80
2019-03-18T19:33:11.733Z,71.80
2019-03-18T19:35:43.492Z,71.60
2019-03-18T19:38:16.106Z,70.40
2019-03-18T19:40:44.737Z,70.40
2019-03-18T19:43:13.585Z,70.60
2019-03-18T19:45:45.172Z,69.20
2019-03-18T19:48:14.019Z,70.30
2019-03-18T19:50:42.548Z,70.40
2019-03-18T19:53:11.122Z,70.40
2019-03-18T19:55:39.993Z,69.70
2019-03-18T19:58:08.774Z,69.00
2019-03-18T20:00:37.504Z,68.50
2019-03-18T20:03:06.311Z,68.80
2019-03-18T20:05:34.876Z,67.90
2019-03-18T20:08:03.478Z,69.20
2019-03-18T20:10:32.696Z,68.70
2019-03-18T20:13:04.550Z,68.50
2019-03-18T20:15:43.495Z,68.80
2019-03-18T20:18:12.308Z,68.80
2019-03-18T20:20:40.859Z,68.20
2019-03-18T20:23:10.211Z,68.30
2019-03-18T20:25:41.511Z,69.60
2019-03-18T20:28:10.422Z,71.30
2019-03-18T20:30:51.709Z,72.20
2019-03-18T20:33:22.153Z,73.70
2019-03-18T20:35:50.735Z,74.10
2019-03-18T20:38:19.556Z,74.90
2019-03-18T20:40:48.311Z,76.20
2019-03-18T20:43:17.035Z,75.10
2019-03-18T20:45:45.684Z,74.10
2019-03-18T20:48:14.776Z,76.10
2019-03-18T20:50:43.738Z,74.80
2019-03-18T20:53:12.357Z,76.00
2019-03-18T20:55:41.159Z,76.00
2019-03-18T20:58:09.595Z,76.00
2019-03-18T21:00:38.278Z,75.90
2019-03-18T21:03:07.191Z,75.90
2019-03-18T21:05:36.161Z,75.80
2019-03-18T21:08:04.707Z,75.80
2019-03-18T21:10:33.100Z,75.80
2019-03-18T21:13:01.598Z,76.80
2019-03-18T21:15:30.203Z,76.80
2019-03-18T21:17:58.549Z,77.50
2019-03-18T21:20:26.465Z,78.10
2019-03-18T21:22:54.244Z,77.90
2019-03-18T21:25:22.201Z,78.60
2019-03-18T21:27:50.028Z,77.60
2019-03-18T21:30:18.088Z,78.20
2019-03-18T21:32:45.881Z,76.80
2019-03-18T21:35:13.677Z,77.00
2019-03-18T21:37:41.537Z,78.50
2019-03-18T21:40:11.231Z,78.60
2019-03-18T21:42:39.008Z,79.20
2019-03-18T21:45:08.766Z,78.30
2019-03-18T21:47:36.668Z,78.60
2019-03-18T21:50:05.102Z,79.20
2019-03-18T21:52:32.909Z,79.60
2019-03-18T21:55:00.807Z,79.60
2019-03-18T21:57:29.034Z,79.50
2019-03-18T21:59:57.726Z,80.20
2019-03-18T22:02:25.521Z,80.30
2019-03-18T22:04:53.343Z,80.40
2019-03-18T22:07:21.181Z,82.10
2019-03-18T22:09:48.956Z,81.40
2019-03-18T22:12:17.173Z,80.80
2019-03-18T22:14:45.102Z,80.50
2019-03-18T22:17:12.941Z,80.60
2019-03-18T22:19:43.248Z,81.40
2019-03-18T22:22:11.009Z,82.30
2019-03-18T22:24:58.271Z,80.90
2019-03-18T22:27:26.382Z,81.20
2019-03-18T22:29:54.494Z,81.40
2019-03-18T22:32:24.838Z,81.30
2019-03-18T22:34:52.028Z,81.20
2019-03-18T22:37:19.867Z,82.80
2019-03-18T22:39:47.697Z,82.80
2019-03-18T22:42:15.463Z,81.70
2019-03-18T22:44:43.334Z,81.20
2019-03-18T22:47:11.143Z,80.40
2019-03-18T22:49:39.096Z,80.80
2019-03-18T22:52:26.331Z,81.00
2019-03-18T22:54:59.404Z,80.90
2019-03-18T22:57:27.316Z,80.30
2019-03-18T22:59:55.496Z,80.40
2019-03-18T23:02:23.373Z,80.30
2019-03-18T23:04:51.462Z,80.30
2019-03-18T23:07:19.190Z,80.20
2019-03-18T23:09:47.088Z,81.20
2019-03-18T23:12:14.893Z,81.10
2019-03-18T23:14:42.794Z,81.30
2019-03-18T23:17:10.615Z,82.20
2019-03-18T23:19:38.417Z,82.70
2019-03-18T23:22:06.141Z,82.50
2019-03-18T23:24:33.943Z,81.60
2019-03-18T23:27:03.784Z,80.80
2019-03-18T23:29:31.639Z,80.40
2019-03-18T23:31:59.448Z,80.20
2019-03-18T23:34:27.322Z,82.50
2019-03-18T23:36:55.202Z,82.90
2019-03-18T23:39:23.013Z,83.60
2019-03-18T23:41:50.805Z,83.30
2019-03-18T23:44:18.692Z,83.60
2019-03-18T23:46:46.519Z,82.90
2019-03-18T23:49:16.508Z,84.40
2019-03-18T23:51:44.325Z,84.60
2019-03-18T23:54:12.124Z,85.20
2019-03-18T23:56:40.059Z,84.80
2019-03-18T23:59:08.981Z,84.70
